Groveland, New York
Current Conditions -  °F | °C
As of 4:54 AM on Sunday 25 Jan 2015 (Local Time) from KDSV Reporting Station
Overcast Overcast  
Wind Chill: -6°   Ceiling: 3600
Heat Index: -1°   Visibility: 10mi
Dew Point: -7°   Wind: 14mph
Humidity: 61%   Direction: 310°NW
Pressure: 29.66"   Gusts: 25mph
Location:  42.66°N, 77.77°W
Report Text: KDSV 250954Z AUTO 31012G22KT 10SM FEW027 BKN036 OVC042 M01/M07 A2966 RMK AO2 SLP061 T10061072
Loading
Personal Weather Stations






























Interactive Weather Map New forecast layout! Learn more

10-Day Weather Forecast

Advertisements
Track Severe Weather on mobile